sensor_id;sensor_type;location;lat;lon;timestamp;pressure;altitude;pressure_sealevel;temperature;humidity
54042;BME280;41156;51.508;5.406;2022-12-05T00:04:12;101629.19;;;1.94;100.00
54042;BME280;41156;51.508;5.406;2022-12-05T00:07:13;101636.19;;;1.95;100.00
54042;BME280;41156;51.508;5.406;2022-12-05T00:10:13;101643.38;;;1.94;100.00
54042;BME280;41156;51.508;5.406;2022-12-05T00:13:14;101634.53;;;1.94;100.00
54042;BME280;41156;51.508;5.406;2022-12-05T00:16:17;101641.53;;;1.95;100.00
54042;BME280;41156;51.508;5.406;2022-12-05T00:19:17;101637.88;;;1.96;100.00
54042;BME280;41156;51.508;5.406;2022-12-05T00:22:18;101641.53;;;1.95;100.00
54042;BME280;41156;51.508;5.406;2022-12-05T00:25:18;101643.09;;;1.97;100.00
54042;BME280;41156;51.508;5.406;2022-12-05T00:28:19;101642.81;;;2.00;100.00
54042;BME280;41156;51.508;5.406;2022-12-05T00:31:21;101645.34;;;2.02;100.00
54042;BME280;41156;51.508;5.406;2022-12-05T00:34:22;101634.69;;;2.02;100.00
54042;BME280;41156;51.508;5.406;2022-12-05T00:37:23;101628.50;;;2.01;100.00
54042;BME280;41156;51.508;5.406;2022-12-05T00:40:23;101631.00;;;2.03;100.00
54042;BME280;41156;51.508;5.406;2022-12-05T00:43:24;101630.88;;;2.04;100.00
54042;BME280;41156;51.508;5.406;2022-12-05T00:46:26;101624.56;;;2.06;100.00
54042;BME280;41156;51.508;5.406;2022-12-05T00:49:27;101627.25;;;2.06;100.00
54042;BME280;41156;51.508;5.406;2022-12-05T00:52:27;101626.28;;;2.07;100.00
54042;BME280;41156;51.508;5.406;2022-12-05T00:55:27;101620.06;;;2.06;100.00
54042;BME280;41156;51.508;5.406;2022-12-05T00:58:28;101633.28;;;2.08;100.00
54042;BME280;41156;51.508;5.406;2022-12-05T01:01:33;101625.13;;;2.09;100.00
54042;BME280;41156;51.508;5.406;2022-12-05T01:04:33;101624.16;;;2.10;100.00
54042;BME280;41156;51.508;5.406;2022-12-05T01:07:33;101625.97;;;2.10;100.00
54042;BME280;41156;51.508;5.406;2022-12-05T01:10:34;101630.31;;;2.11;100.00
54042;BME280;41156;51.508;5.406;2022-12-05T01:13:34;101637.50;;;2.10;100.00
54042;BME280;41156;51.508;5.406;2022-12-05T01:16:36;101639.28;;;2.10;100.00
54042;BME280;41156;51.508;5.406;2022-12-05T01:19:37;101643.53;;;2.12;100.00
54042;BME280;41156;51.508;5.406;2022-12-05T01:22:37;101637.34;;;2.12;100.00
54042;BME280;41156;51.508;5.406;2022-12-05T01:25:39;101650.38;;;2.15;100.00
54042;BME280;41156;51.508;5.406;2022-12-05T01:28:40;101646.88;;;2.14;100.00
54042;BME280;41156;51.508;5.406;2022-12-05T01:31:40;101649.41;;;2.16;100.00
54042;BME280;41156;51.508;5.406;2022-12-05T01:34:40;101643.94;;;2.17;100.00
54042;BME280;41156;51.508;5.406;2022-12-05T01:37:41;101646.47;;;2.19;100.00
54042;BME280;41156;51.508;5.406;2022-12-05T01:40:41;101651.81;;;2.19;100.00
54042;BME280;41156;51.508;5.406;2022-12-05T01:47:15;101660.50;;;2.21;100.00
54042;BME280;41156;51.508;5.406;2022-12-05T01:50:17;101660.50;;;2.21;100.00
54042;BME280;41156;51.508;5.406;2022-12-05T01:53:18;101663.31;;;2.19;100.00
54042;BME280;41156;51.508;5.406;2022-12-05T01:56:19;101665.84;;;2.21;100.00
54042;BME280;41156;51.508;5.406;2022-12-05T01:59:20;101665.84;;;2.21;100.00
54042;BME280;41156;51.508;5.406;2022-12-05T02:02:21;101669.38;;;2.21;100.00
54042;BME280;41156;51.508;5.406;2022-12-05T02:05:27;101664.03;;;2.21;100.00
54042;BME280;41156;51.508;5.406;2022-12-05T02:08:27;101664.88;;;2.22;100.00
54042;BME280;41156;51.508;5.406;2022-12-05T02:11:29;101671.72;;;2.25;100.00
54042;BME280;41156;51.508;5.406;2022-12-05T02:18:07;101671.44;;;2.28;100.00
54042;BME280;41156;51.508;5.406;2022-12-05T02:21:50;101666.25;;;2.26;100.00
54042;BME280;41156;51.508;5.406;2022-12-05T02:28:43;101662.47;;;2.29;100.00
54042;BME280;41156;51.508;5.406;2022-12-05T02:32:05;101661.66;;;2.28;100.00
54042;BME280;41156;51.508;5.406;2022-12-05T02:35:17;101659.94;;;2.27;100.00
54042;BME280;41156;51.508;5.406;2022-12-05T02:38:31;101662.75;;;2.26;100.00
54042;BME280;41156;51.508;5.406;2022-12-05T02:41:40;101658.13;;;2.28;100.00
54042;BME280;41156;51.508;5.406;2022-12-05T02:44:49;101655.44;;;2.28;100.00
54042;BME280;41156;51.508;5.406;2022-12-05T02:47:53;101656.44;;;2.27;100.00
54042;BME280;41156;51.508;5.406;2022-12-05T02:50:56;101666.13;;;2.28;100.00
54042;BME280;41156;51.508;5.406;2022-12-05T02:54:02;101655.44;;;2.28;100.00
54042;BME280;41156;51.508;5.406;2022-12-05T02:57:05;101665.00;;;2.30;100.00
54042;BME280;41156;51.508;5.406;2022-12-05T03:00:06;101667.53;;;2.32;100.00
54042;BME280;41156;51.508;5.406;2022-12-05T03:03:13;101670.06;;;2.33;100.00
54042;BME280;41156;51.508;5.406;2022-12-05T03:06:19;101667.53;;;2.32;100.00
54042;BME280;41156;51.508;5.406;2022-12-05T03:09:26;101667.41;;;2.33;100.00
54042;BME280;41156;51.508;5.406;2022-12-05T03:12:32;101667.53;;;2.32;100.00
54042;BME280;41156;51.508;5.406;2022-12-05T03:15:44;101671.88;;;2.33;100.00
54042;BME280;41156;51.508;5.406;2022-12-05T03:18:54;101666.53;;;2.33;100.00
54042;BME280;41156;51.508;5.406;2022-12-05T03:22:01;101667.53;;;2.32;100.00
54042;BME280;41156;51.508;5.406;2022-12-05T03:25:03;101665.84;;;2.31;100.00
54042;BME280;41156;51.508;5.406;2022-12-05T03:28:09;101663.16;;;2.31;100.00
54042;BME280;41156;51.508;5.406;2022-12-05T03:31:13;101658.66;;;2.31;100.00
54042;BME280;41156;51.508;5.406;2022-12-05T03:34:20;101654.91;;;2.34;100.00
54042;BME280;41156;51.508;5.406;2022-12-05T03:37:37;101661.06;;;2.34;100.00
54042;BME280;41156;51.508;5.406;2022-12-05T03:40:46;101657.56;;;2.34;100.00
54042;BME280;41156;51.508;5.406;2022-12-05T03:43:54;101652.38;;;2.32;100.00
54042;BME280;41156;51.508;5.406;2022-12-05T03:47:11;101660.38;;;2.32;100.00
54042;BME280;41156;51.508;5.406;2022-12-05T03:50:24;101652.38;;;2.32;100.00
54042;BME280;41156;51.508;5.406;2022-12-05T03:53:34;101658.38;;;2.34;100.00
54042;BME280;41156;51.508;5.406;2022-12-05T03:56:40;101656.59;;;2.35;100.00
54042;BME280;41156;51.508;5.406;2022-12-05T03:59:49;101659.94;;;2.37;100.00
54042;BME280;41156;51.508;5.406;2022-12-05T04:06:13;101664.28;;;2.38;100.00
54042;BME280;41156;51.508;5.406;2022-12-05T04:09:19;101667.94;;;2.37;100.00
54042;BME280;41156;51.508;5.406;2022-12-05T04:12:25;101664.28;;;2.38;100.00
54042;BME280;41156;51.508;5.406;2022-12-05T04:15:28;101670.34;;;2.40;100.00
54042;BME280;41156;51.508;5.406;2022-12-05T04:18:57;101669.34;;;2.41;100.00
54042;BME280;41156;51.508;5.406;2022-12-05T04:22:00;101669.34;;;2.41;100.00
54042;BME280;41156;51.508;5.406;2022-12-05T04:25:02;101674.81;;;2.39;100.00
54042;BME280;41156;51.508;5.406;2022-12-05T04:28:31;101671.31;;;2.39;100.00
54042;BME280;41156;51.508;5.406;2022-12-05T04:31:39;101676.50;;;2.40;100.00
54042;BME280;41156;51.508;5.406;2022-12-05T04:34:45;101687.31;;;2.39;100.00
54042;BME280;41156;51.508;5.406;2022-12-05T04:37:51;101680.16;;;2.39;100.00
54042;BME280;41156;51.508;5.406;2022-12-05T04:40:59;101675.69;;;2.40;100.00
54042;BME280;41156;51.508;5.406;2022-12-05T04:44:06;101677.47;;;2.39;100.00
54042;BME280;41156;51.508;5.406;2022-12-05T04:47:08;101681.97;;;2.39;100.00
54042;BME280;41156;51.508;5.406;2022-12-05T04:50:13;101692.50;;;2.40;100.00
54042;BME280;41156;51.508;5.406;2022-12-05T04:53:15;101681.00;;;2.40;100.00
54042;BME280;41156;51.508;5.406;2022-12-05T04:56:17;101677.47;;;2.39;100.00
54042;BME280;41156;51.508;5.406;2022-12-05T04:59:19;101680.16;;;2.39;100.00
54042;BME280;41156;51.508;5.406;2022-12-05T05:02:33;101673.84;;;2.40;100.00
54042;BME280;41156;51.508;5.406;2022-12-05T05:05:37;101675.38;;;2.43;100.00
54042;BME280;41156;51.508;5.406;2022-12-05T05:08:49;101680.72;;;2.43;100.00
54042;BME280;41156;51.508;5.406;2022-12-05T05:11:50;101682.41;;;2.44;100.00
54042;BME280;41156;51.508;5.406;2022-12-05T05:14:50;101679.72;;;2.44;100.00
54042;BME280;41156;51.508;5.406;2022-12-05T05:17:50;101690.25;;;2.46;100.00
54042;BME280;41156;51.508;5.406;2022-12-05T05:20:51;101694.78;;;2.45;100.00
54042;BME280;41156;51.508;5.406;2022-12-05T05:23:51;101693.06;;;2.44;100.00
54042;BME280;41156;51.508;5.406;2022-12-05T05:26:52;101697.31;;;2.47;100.00
54042;BME280;41156;51.508;5.406;2022-12-05T05:29:52;101693.78;;;2.46;100.00
54042;BME280;41156;51.508;5.406;2022-12-05T05:32:52;101689.28;;;2.47;100.00
54042;BME280;41156;51.508;5.406;2022-12-05T05:35:53;101690.81;;;2.49;100.00
54042;BME280;41156;51.508;5.406;2022-12-05T05:38:55;101696.16;;;2.49;100.00
54042;BME280;41156;51.508;5.406;2022-12-05T05:41:56;101694.31;;;2.50;100.00
54042;BME280;41156;51.508;5.406;2022-12-05T05:44:56;101693.34;;;2.51;100.00
54042;BME280;41156;51.508;5.406;2022-12-05T05:47:57;101696.03;;;2.51;100.00
54042;BME280;41156;51.508;5.406;2022-12-05T05:50:58;101692.53;;;2.50;100.00
54042;BME280;41156;51.508;5.406;2022-12-05T05:53:59;101696.84;;;2.51;100.00
54042;BME280;41156;51.508;5.406;2022-12-05T05:56:59;101699.81;;;2.48;100.00
54042;BME280;41156;51.508;5.406;2022-12-05T06:00:00;101705.16;;;2.48;100.00
54042;BME280;41156;51.508;5.406;2022-12-05T06:03:00;101708.81;;;2.47;100.00
54042;BME280;41156;51.508;5.406;2022-12-05T06:06:04;101698.97;;;2.48;100.00
54042;BME280;41156;51.508;5.406;2022-12-05T06:09:06;101698.97;;;2.48;100.00
54042;BME280;41156;51.508;5.406;2022-12-05T06:12:06;101703.31;;;2.49;100.00
54042;BME280;41156;51.508;5.406;2022-12-05T06:15:07;101706.00;;;2.49;100.00
54042;BME280;41156;51.508;5.406;2022-12-05T06:18:07;101706.69;;;2.51;100.00
54042;BME280;41156;51.508;5.406;2022-12-05T06:21:09;101711.06;;;2.52;100.00
54042;BME280;41156;51.508;5.406;2022-12-05T06:24:09;101702.19;;;2.51;100.00
54042;BME280;41156;51.508;5.406;2022-12-05T06:27:10;101712.72;;;2.53;100.00
54042;BME280;41156;51.508;5.406;2022-12-05T06:30:10;101715.38;;;2.53;100.00
54042;BME280;41156;51.508;5.406;2022-12-05T06:33:11;101712.59;;;2.54;100.00
54042;BME280;41156;51.508;5.406;2022-12-05T06:36:14;101707.94;;;2.56;100.00
54042;BME280;41156;51.508;5.406;2022-12-05T06:39:15;101713.28;;;2.56;100.00
54042;BME280;41156;51.508;5.406;2022-12-05T06:42:16;101714.97;;;2.57;100.00
54042;BME280;41156;51.508;5.406;2022-12-05T06:45:16;101711.34;;;2.58;100.00
54042;BME280;41156;51.508;5.406;2022-12-05T06:48:16;101715.25;;;2.54;100.00
54042;BME280;41156;51.508;5.406;2022-12-05T06:51:16;101715.53;;;2.51;100.00
54042;BME280;41156;51.508;5.406;2022-12-05T06:54:17;101717.22;;;2.52;100.00
54042;BME280;41156;51.508;5.406;2022-12-05T06:57:17;101718.19;;;2.51;100.00
54042;BME280;41156;51.508;5.406;2022-12-05T07:00:18;101722.56;;;2.52;100.00
54042;BME280;41156;51.508;5.406;2022-12-05T07:03:37;101726.06;;;2.53;100.00
54042;BME280;41156;51.508;5.406;2022-12-05T07:06:38;101728.59;;;2.54;100.00
54042;BME280;41156;51.508;5.406;2022-12-05T07:09:39;101734.78;;;2.55;100.00
54042;BME280;41156;51.508;5.406;2022-12-05T07:12:45;101731.13;;;2.56;100.00
54042;BME280;41156;51.508;5.406;2022-12-05T07:15:46;101741.78;;;2.56;100.00
54042;BME280;41156;51.508;5.406;2022-12-05T07:18:47;101740.28;;;2.63;100.00
54042;BME280;41156;51.508;5.406;2022-12-05T07:21:47;101746.31;;;2.65;100.00
54042;BME280;41156;51.508;5.406;2022-12-05T07:24:50;101753.16;;;2.68;100.00
54042;BME280;41156;51.508;5.406;2022-12-05T07:27:51;101753.03;;;2.69;100.00
54042;BME280;41156;51.508;5.406;2022-12-05T07:31:19;101762.88;;;2.69;100.00
54042;BME280;41156;51.508;5.406;2022-12-05T07:34:19;101765.53;;;2.69;100.00
54042;BME280;41156;51.508;5.406;2022-12-05T07:37:20;101764.72;;;2.68;100.00
54042;BME280;41156;51.508;5.406;2022-12-05T07:40:20;101767.06;;;2.71;100.00
54042;BME280;41156;51.508;5.406;2022-12-05T07:43:21;101757.94;;;2.74;100.00
54042;BME280;41156;51.508;5.406;2022-12-05T07:46:22;101756.13;;;2.74;100.00
54042;BME280;41156;51.508;5.406;2022-12-05T07:49:23;101761.47;;;2.74;100.00
54042;BME280;41156;51.508;5.406;2022-12-05T07:52:24;101758.78;;;2.74;100.00
54042;BME280;41156;51.508;5.406;2022-12-05T07:55:24;101767.81;;;2.73;100.00
54042;BME280;41156;51.508;5.406;2022-12-05T07:58:24;101769.31;;;2.76;100.00
54042;BME280;41156;51.508;5.406;2022-12-05T08:01:29;101766.78;;;2.74;100.00
54042;BME280;41156;51.508;5.406;2022-12-05T08:04:29;101768.34;;;2.77;100.00
54042;BME280;41156;51.508;5.406;2022-12-05T08:07:30;101767.34;;;2.78;100.00
54042;BME280;41156;51.508;5.406;2022-12-05T08:10:30;101770.03;;;2.78;100.00
54042;BME280;41156;51.508;5.406;2022-12-05T08:13:31;101779.72;;;2.79;100.00
54042;BME280;41156;51.508;5.406;2022-12-05T08:16:31;101785.06;;;2.79;100.00
54042;BME280;41156;51.508;5.406;2022-12-05T08:19:32;101785.06;;;2.79;100.00
54042;BME280;41156;51.508;5.406;2022-12-05T08:22:32;101787.59;;;2.81;100.00
54042;BME280;41156;51.508;5.406;2022-12-05T08:25:32;101799.09;;;2.81;100.00
54042;BME280;41156;51.508;5.406;2022-12-05T08:28:33;101794.50;;;2.83;100.00
54042;BME280;41156;51.508;5.406;2022-12-05T08:31:37;101802.34;;;2.85;100.00
54042;BME280;41156;51.508;5.406;2022-12-05T08:34:38;101804.03;;;2.86;100.00
54042;BME280;41156;51.508;5.406;2022-12-05T08:37:38;101803.06;;;2.87;100.00
54042;BME280;41156;51.508;5.406;2022-12-05T08:40:38;101809.94;;;2.89;100.00
54042;BME280;41156;51.508;5.406;2022-12-05T08:43:39;101811.63;;;2.90;100.00
54042;BME280;41156;51.508;5.406;2022-12-05T08:46:39;101806.28;;;2.90;100.00
54042;BME280;41156;51.508;5.406;2022-12-05T08:49:39;101803.34;;;2.93;100.00
54042;BME280;41156;51.508;5.406;2022-12-05T08:52:40;101801.50;;;2.94;100.00
54042;BME280;41156;51.508;5.406;2022-12-05T08:55:40;101803.19;;;2.95;100.00
54042;BME280;41156;51.508;5.406;2022-12-05T08:58:40;101809.22;;;2.97;100.00
54042;BME280;41156;51.508;5.406;2022-12-05T09:01:41;101812.75;;;2.97;100.00
54042;BME280;41156;51.508;5.406;2022-12-05T09:04:41;101820.75;;;2.97;100.00
54042;BME280;41156;51.508;5.406;2022-12-05T09:07:42;101818.91;;;2.98;100.00
54042;BME280;41156;51.508;5.406;2022-12-05T09:10:42;101822.44;;;2.99;100.00
54042;BME280;41156;51.508;5.406;2022-12-05T09:13:43;101826.78;;;3.00;100.00
54042;BME280;41156;51.508;5.406;2022-12-05T09:16:45;101824.84;;;3.02;100.00
54042;BME280;41156;51.508;5.406;2022-12-05T09:19:50;101829.31;;;3.01;100.00
54042;BME280;41156;51.508;5.406;2022-12-05T09:22:51;101826.66;;;3.01;100.00
54042;BME280;41156;51.508;5.406;2022-12-05T09:25:52;101831.72;;;3.04;100.00
54042;BME280;41156;51.508;5.406;2022-12-05T09:28:55;101844.09;;;3.05;100.00
54042;BME280;41156;51.508;5.406;2022-12-05T09:31:56;101842.94;;;3.08;100.00
54042;BME280;41156;51.508;5.406;2022-12-05T09:34:56;101841.13;;;3.08;100.00
54042;BME280;41156;51.508;5.406;2022-12-05T09:37:56;101841.97;;;3.09;100.00
54042;BME280;41156;51.508;5.406;2022-12-05T09:41:15;101853.06;;;3.14;100.00
54042;BME280;41156;51.508;5.406;2022-12-05T09:44:46;101847.59;;;3.15;100.00
54042;BME280;41156;51.508;5.406;2022-12-05T09:48:11;101854.03;;;3.13;100.00
54042;BME280;41156;51.508;5.406;2022-12-05T09:51:13;101854.03;;;3.13;100.00
54042;BME280;41156;51.508;5.406;2022-12-05T09:54:14;101850.25;;;3.15;100.00
54042;BME280;41156;51.508;5.406;2022-12-05T09:57:15;101855.47;;;3.17;100.00
54042;BME280;41156;51.508;5.406;2022-12-05T10:00:16;101853.34;;;3.21;100.00
54042;BME280;41156;51.508;5.406;2022-12-05T10:03:29;101857.84;;;3.20;100.00
54042;BME280;41156;51.508;5.406;2022-12-05T10:06:39;101856.72;;;3.23;100.00
54042;BME280;41156;51.508;5.406;2022-12-05T10:16:31;101856.03;;;3.30;100.00
54042;BME280;41156;51.508;5.406;2022-12-05T10:19:38;101854.88;;;3.33;100.00
54042;BME280;41156;51.508;5.406;2022-12-05T10:22:45;101853.22;;;3.32;100.00
54042;BME280;41156;51.508;5.406;2022-12-05T10:25:51;101848.00;;;3.30;100.00
54042;BME280;41156;51.508;5.406;2022-12-05T10:38:23;101853.22;;;3.32;100.00
54042;BME280;41156;51.508;5.406;2022-12-05T10:41:24;101856.72;;;3.32;100.00
54042;BME280;41156;51.508;5.406;2022-12-05T10:44:25;101848.97;;;3.29;100.00
54042;BME280;41156;51.508;5.406;2022-12-05T10:47:25;101856.84;;;3.31;100.00
54042;BME280;41156;51.508;5.406;2022-12-05T10:50:32;101856.72;;;3.32;100.00
54042;BME280;41156;51.508;5.406;2022-12-05T10:53:40;101860.22;;;3.33;100.00
54042;BME280;41156;51.508;5.406;2022-12-05T10:56:46;101857.53;;;3.33;100.00
54042;BME280;41156;51.508;5.406;2022-12-05T10:59:46;101857.41;;;3.34;100.00
54042;BME280;41156;51.508;5.406;2022-12-05T11:02:47;101856.16;;;3.39;100.00
54042;BME280;41156;51.508;5.406;2022-12-05T11:05:50;101855.28;;;3.48;100.00
54042;BME280;41156;51.508;5.406;2022-12-05T11:08:56;101848.69;;;3.52;100.00
54042;BME280;41156;51.508;5.406;2022-12-05T11:18:33;101841.63;;;3.51;100.00
54042;BME280;41156;51.508;5.406;2022-12-05T11:21:41;101845.84;;;3.54;100.00
54042;BME280;41156;51.508;5.406;2022-12-05T11:24:41;101843.88;;;3.56;100.00
54042;BME280;41156;51.508;5.406;2022-12-05T11:27:42;101840.78;;;3.60;100.00
54042;BME280;41156;51.508;5.406;2022-12-05T11:30:55;101839.78;;;3.61;100.00
54042;BME280;41156;51.508;5.406;2022-12-05T11:34:01;101840.50;;;3.63;100.00
54042;BME280;41156;51.508;5.406;2022-12-05T11:37:09;101845.28;;;3.60;100.00
54042;BME280;41156;51.508;5.406;2022-12-05T11:40:29;101837.97;;;3.62;100.00
54042;BME280;41156;51.508;5.406;2022-12-05T11:50:21;101826.41;;;3.61;100.00
54042;BME280;41156;51.508;5.406;2022-12-05T11:57:03;101837.97;;;3.62;100.00
54042;BME280;41156;51.508;5.406;2022-12-05T12:00:16;101832.91;;;3.59;100.00
54042;BME280;41156;51.508;5.406;2022-12-05T12:03:33;101834.59;;;3.60;100.00
54042;BME280;41156;51.508;5.406;2022-12-05T12:10:06;101840.50;;;3.63;100.00
54042;BME280;41156;51.508;5.406;2022-12-05T12:16:46;101833.44;;;3.62;100.00
54042;BME280;41156;51.508;5.406;2022-12-05T12:20:01;101839.78;;;3.61;100.00
54042;BME280;41156;51.508;5.406;2022-12-05T12:23:31;101841.31;;;3.64;100.00
54042;BME280;41156;51.508;5.406;2022-12-05T12:26:56;101837.81;;;3.63;100.00
54042;BME280;41156;51.508;5.406;2022-12-05T12:33:12;101839.59;;;3.73;100.00
54042;BME280;41156;51.508;5.406;2022-12-05T12:36:17;101834.13;;;3.74;100.00
54042;BME280;41156;51.508;5.406;2022-12-05T12:39:51;101831.31;;;3.76;100.00
54042;BME280;41156;51.508;5.406;2022-12-05T12:50:02;101829.19;;;3.69;100.00
54042;BME280;41156;51.508;5.406;2022-12-05T13:02:58;101817.41;;;3.62;100.00
54042;BME280;41156;51.508;5.406;2022-12-05T13:06:19;101817.00;;;3.57;100.00
54042;BME280;41156;51.508;5.406;2022-12-05T13:09:37;101810.09;;;3.55;100.00
54042;BME280;41156;51.508;5.406;2022-12-05T13:12:40;101799.75;;;3.51;100.00
54042;BME280;41156;51.508;5.406;2022-12-05T13:15:49;101808.59;;;3.52;100.00
54042;BME280;41156;51.508;5.406;2022-12-05T13:18:50;101806.06;;;3.50;100.00
54042;BME280;41156;51.508;5.406;2022-12-05T13:21:51;101810.56;;;3.50;100.00
54042;BME280;41156;51.508;5.406;2022-12-05T13:24:53;101805.91;;;3.52;100.00
54042;BME280;41156;51.508;5.406;2022-12-05T13:27:58;101801.94;;;3.56;100.00
54042;BME280;41156;51.508;5.406;2022-12-05T13:31:00;101811.25;;;3.52;100.00
54042;BME280;41156;51.508;5.406;2022-12-05T13:34:01;101809.56;;;3.51;100.00
54042;BME280;41156;51.508;5.406;2022-12-05T13:37:10;101816.59;;;3.52;100.00
54042;BME280;41156;51.508;5.406;2022-12-05T13:40:32;101808.72;;;3.60;100.00
54042;BME280;41156;51.508;5.406;2022-12-05T13:43:52;101817.41;;;3.62;100.00
54042;BME280;41156;51.508;5.406;2022-12-05T13:46:54;101816.28;;;3.65;100.00
54042;BME280;41156;51.508;5.406;2022-12-05T13:50:02;101810.38;;;3.61;100.00
54042;BME280;41156;51.508;5.406;2022-12-05T13:53:05;101817.97;;;3.66;100.00
54042;BME280;41156;51.508;5.406;2022-12-05T13:56:25;101806.28;;;3.67;100.00
54042;BME280;41156;51.508;5.406;2022-12-05T14:03:14;101820.91;;;3.73;100.00
54042;BME280;41156;51.508;5.406;2022-12-05T14:09:49;101811.63;;;3.77;100.00
54042;BME280;41156;51.508;5.406;2022-12-05T14:13:37;101813.41;;;3.76;100.00
54042;BME280;41156;51.508;5.406;2022-12-05T14:19:29;101817.50;;;3.80;100.00
54042;BME280;41156;51.508;5.406;2022-12-05T14:22:57;101829.31;;;3.78;100.00
54042;BME280;41156;51.508;5.406;2022-12-05T14:26:17;101827.78;;;3.75;100.00
54042;BME280;41156;51.508;5.406;2022-12-05T14:29:35;101816.50;;;3.81;100.00
54042;BME280;41156;51.508;5.406;2022-12-05T14:32:38;101825.22;;;3.83;100.00
54042;BME280;41156;51.508;5.406;2022-12-05T14:35:43;101822.41;;;3.85;100.00
54042;BME280;41156;51.508;5.406;2022-12-05T14:38:45;101825.78;;;3.87;100.00
54042;BME280;41156;51.508;5.406;2022-12-05T14:41:45;101822.41;;;3.85;100.00
54042;BME280;41156;51.508;5.406;2022-12-05T14:44:48;101828.47;;;3.87;100.00
54042;BME280;41156;51.508;5.406;2022-12-05T14:47:51;101828.47;;;3.87;100.00
54042;BME280;41156;51.508;5.406;2022-12-05T14:50:54;101828.19;;;3.80;100.00
54042;BME280;41156;51.508;5.406;2022-12-05T14:54:15;101824.69;;;3.80;100.00
54042;BME280;41156;51.508;5.406;2022-12-05T14:57:18;101830.44;;;3.85;100.00
54042;BME280;41156;51.508;5.406;2022-12-05T15:00:21;101832.09;;;3.86;100.00
54042;BME280;41156;51.508;5.406;2022-12-05T15:03:31;101829.44;;;3.86;100.00
54042;BME280;41156;51.508;5.406;2022-12-05T15:06:36;101841.28;;;3.83;100.00
54042;BME280;41156;51.508;5.406;2022-12-05T15:13:09;101839.59;;;3.82;100.00
54042;BME280;41156;51.508;5.406;2022-12-05T15:16:15;101836.75;;;3.84;100.00
54042;BME280;41156;51.508;5.406;2022-12-05T15:19:26;101841.28;;;3.83;100.00
54042;BME280;41156;51.508;5.406;2022-12-05T15:22:32;101828.75;;;3.84;100.00
54042;BME280;41156;51.508;5.406;2022-12-05T15:25:35;101844.66;;;3.85;100.00
54042;BME280;41156;51.508;5.406;2022-12-05T15:28:36;101841.13;;;3.85;100.00
54042;BME280;41156;51.508;5.406;2022-12-05T15:31:45;101838.47;;;3.85;100.00
54042;BME280;41156;51.508;5.406;2022-12-05T15:34:54;101839.28;;;3.85;100.00
54042;BME280;41156;51.508;5.406;2022-12-05T15:37:59;101839.28;;;3.85;100.00
54042;BME280;41156;51.508;5.406;2022-12-05T15:41:00;101844.50;;;3.87;100.00
54042;BME280;41156;51.508;5.406;2022-12-05T15:44:03;101856.84;;;3.88;100.00
54042;BME280;41156;51.508;5.406;2022-12-05T15:47:04;101852.53;;;3.87;100.00
54042;BME280;41156;51.508;5.406;2022-12-05T15:50:05;101852.53;;;3.87;100.00
54042;BME280;41156;51.508;5.406;2022-12-05T15:53:13;101855.34;;;3.85;100.00
54042;BME280;41156;51.508;5.406;2022-12-05T15:56:47;101845.34;;;3.87;100.00
54042;BME280;41156;51.508;5.406;2022-12-05T16:00:04;101839.97;;;3.87;100.00
54042;BME280;41156;51.508;5.406;2022-12-05T16:03:11;101844.50;;;3.87;100.00
54042;BME280;41156;51.508;5.406;2022-12-05T16:06:45;101847.16;;;3.87;100.00
54042;BME280;41156;51.508;5.406;2022-12-05T16:09:47;101837.31;;;3.87;100.00
54042;BME280;41156;51.508;5.406;2022-12-05T16:12:48;101849.69;;;3.88;100.00
54042;BME280;41156;51.508;5.406;2022-12-05T16:15:52;101854.03;;;3.89;100.00
54042;BME280;41156;51.508;5.406;2022-12-05T16:18:55;101856.56;;;3.91;100.00
54042;BME280;41156;51.508;5.406;2022-12-05T16:22:22;101854.91;;;3.90;100.00
54042;BME280;41156;51.508;5.406;2022-12-05T16:25:24;101859.25;;;3.91;100.00
54042;BME280;41156;51.508;5.406;2022-12-05T16:28:31;101860.13;;;3.92;100.00
54042;BME280;41156;51.508;5.406;2022-12-05T16:31:32;101859.25;;;3.91;100.00
54042;BME280;41156;51.508;5.406;2022-12-05T16:34:33;101856.72;;;3.89;100.00
54042;BME280;41156;51.508;5.406;2022-12-05T16:37:33;101855.59;;;3.92;100.00
54042;BME280;41156;51.508;5.406;2022-12-05T16:40:33;101855.59;;;3.92;100.00
54042;BME280;41156;51.508;5.406;2022-12-05T16:46:41;101859.97;;;3.93;100.00
54042;BME280;41156;51.508;5.406;2022-12-05T16:49:42;101856.56;;;3.91;100.00
54042;BME280;41156;51.508;5.406;2022-12-05T16:52:43;101865.16;;;3.95;100.00
54042;BME280;41156;51.508;5.406;2022-12-05T16:55:44;101863.34;;;3.95;100.00
54042;BME280;41156;51.508;5.406;2022-12-05T16:58:44;101862.31;;;3.96;100.00
54042;BME280;41156;51.508;5.406;2022-12-05T17:01:45;101870.19;;;3.98;100.00
54042;BME280;41156;51.508;5.406;2022-12-05T17:04:45;101867.38;;;3.99;100.00
54042;BME280;41156;51.508;5.406;2022-12-05T17:07:45;101864.56;;;4.01;100.00
54042;BME280;41156;51.508;5.406;2022-12-05T17:10:46;101863.44;;;4.03;100.00
54042;BME280;41156;51.508;5.406;2022-12-05T17:13:47;101866.25;;;4.02;100.00
54042;BME280;41156;51.508;5.406;2022-12-05T17:16:48;101863.44;;;4.03;100.00
54042;BME280;41156;51.508;5.406;2022-12-05T17:19:48;101860.78;;;4.03;100.00
54042;BME280;41156;51.508;5.406;2022-12-05T17:22:49;101867.78;;;4.04;100.00
54042;BME280;41156;51.508;5.406;2022-12-05T17:25:51;101866.13;;;4.03;100.00
54042;BME280;41156;51.508;5.406;2022-12-05T17:28:52;101866.81;;;4.05;100.00
54042;BME280;41156;51.508;5.406;2022-12-05T17:31:53;101870.47;;;4.04;100.00
54042;BME280;41156;51.508;5.406;2022-12-05T17:34:53;101867.63;;;4.06;100.00
54042;BME280;41156;51.508;5.406;2022-12-05T17:37:53;101878.19;;;4.07;100.00
54042;BME280;41156;51.508;5.406;2022-12-05T17:40:54;101868.34;;;4.08;100.00